Westview Chinook — VG3278 — position and weather

sailwx.info

Track history (hours):
 
Tides and Currents Weather Stations Pressure Air Temp Water Temp Dewpoint Dewpoint Depression Visibility Wind Speed Wind Dir Waves Ship Positions

Westview Chinook

Last reported at 2014-Sep-01 18:32 UTC. Time now 2014-Sep-01 18:53 UTC.
Position N 49°14' W 122°46'.

Length 16 m; draft 3.5 m.

Type: Towing. MMSI: 316005622.

Date/timePositionNaut miles runAvg speedWind from/ knotsBaromVisibWave heightAir tempDewpointWater temp
2014-Sep-01 18:32N 49°14' W 122°46'0 0.0
2014-Sep-01 10:23N 49°14' W 122°46'0 0.0
2014-Sep-01 09:32N 49°14' W 122°46'0 0.0
2014-Sep-01 08:33N 49°14' W 122°46'0 0.0
2014-Sep-01 07:08N 49°14' W 122°46'0 0.0
2014-Sep-01 06:31N 49°14' W 122°46'0 0.0
2014-Sep-01 05:33N 49°14' W 122°46'0 0.0
2014-Sep-01 04:26N 49°14' W 122°46'0 0.0
2014-Sep-01 03:18N 49°14' W 122°46'0 0.0
2014-Aug-31 22:33N 49°14' W 122°46'0 0.0
2014-Aug-31 21:32N 49°14' W 122°46'5 5.4
2014-Aug-31 20:33N 49°12' W 122°54'8 8.1
2014-Aug-31 19:34N 49°08' W 123°04'8 8.0
2014-Aug-31 18:33N 49°07' W 123°16'5 5.0
2014-Aug-31 17:33N 49°12' W 123°18'3 3.4
2014-Aug-31 16:33N 49°15' W 123°16'4 3.8
2014-Aug-31 15:33N 49°13' W 123°11'4 3.6
2014-Aug-31 14:33N 49°12' W 123°05'2 1.9
2014-Aug-31 13:34N 49°12' W 123°08'1 0.5
2014-Aug-31 12:34N 49°12' W 123°09'8 7.6
2014-Aug-31 11:34N 49°16' W 123°19'10 9.8
2014-Aug-31 10:33N 49°14' W 123°34'1010.1
2014-Aug-31 09:32N 49°13' W 123°50'4 4.5
2014-Aug-31 08:33N 49°09' W 123°52'4 3.6
2014-Aug-31 07:33N 49°12' W 123°52'7 6.7
2014-Aug-31 06:34N 49°12' W 123°42'7 7.4
2014-Aug-31 05:34N 49°09' W 123°32'8 7.6
2014-Aug-31 04:34N 49°06' W 123°21'7 6.7
2014-Aug-31 03:34N 49°07' W 123°11'6 6.0
2014-Aug-31 02:34N 49°09' W 123°02'7 6.6
2014-Aug-31 01:32N 49°13' W 122°54'5 5.1
2014-Aug-31 00:32N 49°14' W 122°46'0 0.0
2014-Aug-30 23:17N 49°14' W 122°46'0 0.0
2014-Aug-30 22:27N 49°14' W 122°46'0 0.0
2014-Aug-30 21:30N 49°14' W 122°46'0 0.0
2014-Aug-30 20:31N 49°14' W 122°46'0 0.0
2014-Aug-30 19:30N 49°14' W 122°46'0 0.0
2014-Aug-30 18:21N 49°14' W 122°46'0 0.0
2014-Aug-30 17:32N 49°14' W 122°46'0 0.0
2014-Aug-30 16:31N 49°14' W 122°46'0 0.0
2014-Aug-30 15:31N 49°14' W 122°46'0 0.0
2014-Aug-30 13:24N 49°14' W 122°46'0 0.0
2014-Aug-30 12:31N 49°14' W 122°46'4 3.8
2014-Aug-30 11:33N 49°11' W 122°43'1 1.3
2014-Aug-30 10:33N 49°11' W 122°41'5 4.7
2014-Aug-30 09:33N 49°13' W 122°47'6 5.6
2014-Aug-30 08:33N 49°12' W 122°56'6 5.9
2014-Aug-30 07:33N 49°12' W 123°05'0 0.2
2014-Aug-30 06:33N 49°12' W 123°04'1 0.8
2014-Aug-30 05:33N 49°12' W 123°05'4 4.2
2014-Aug-30 04:33N 49°13' W 123°12'6 5.6
2014-Aug-30 03:34N 49°16' W 123°19'2 2.5
2014-Aug-30 02:33N 49°15' W 123°15'5 5.3
2014-Aug-30 01:33N 49°12' W 123°09'6 5.6
2014-Aug-30 00:33N 49°12' W 123°00'3 3.5
2014-Aug-29 23:33N 49°12' W 123°05'0 0.1
2014-Aug-29 22:33N 49°12' W 123°05'0 0.1
2014-Aug-29 21:34N 49°12' W 123°05'7 6.7
2014-Aug-29 20:34N 49°15' W 123°15'2 1.7
2014-Aug-29 19:34N 49°15' W 123°17'5 5.0
2014-Aug-29 18:34N 49°10' W 123°18'4 3.5
2014-Aug-29 17:34N 49°07' W 123°17'4 4.3
2014-Aug-29 16:34N 49°07' W 123°11'4 4.4
2014-Aug-29 15:33N 49°07' W 123°04'4 4.4
2014-Aug-29 14:34N 49°09' W 122°58'4 3.9
2014-Aug-29 13:34N 49°12' W 122°54'0 0.3
2014-Aug-29 12:23N 49°13' W 122°54'5 6.0
2014-Aug-29 11:34N 49°12' W 123°01'1 0.8
2014-Aug-29 10:33N 49°12' W 123°02'5 5.5
2014-Aug-29 09:33N 49°12' W 122°54'7 7.3
2014-Aug-29 08:34N 49°13' W 122°43'6 6.3
2014-Aug-29 07:33N 49°13' W 122°52'4 3.6
2014-Aug-29 06:33N 49°13' W 122°47'4 4.1
2014-Aug-29 05:34N 49°11' W 122°41'2 2.3
2014-Aug-29 04:33N 49°13' W 122°44'7 7.3
2014-Aug-29 03:34N 49°12' W 122°55'1 1.2
2014-Aug-29 02:33N 49°13' W 122°54'0 0.0
2014-Aug-29 01:34N 49°13' W 122°54'1 1.5
2014-Aug-29 00:33N 49°12' W 122°55'6 5.8
2014-Aug-28 23:34N 49°12' W 123°04'3 3.1
2014-Aug-28 22:33N 49°12' W 123°09'1 0.9
2014-Aug-28 21:33N 49°12' W 123°08'0 0.2
2014-Aug-28 20:32N 49°12' W 123°08'0 0.0
2014-Aug-28 19:33N 49°12' W 123°08'2 2.5
2014-Aug-28 18:33N 49°12' W 123°04'6 5.6
2014-Aug-28 17:33N 49°10' W 122°57'4 4.0
2014-Aug-28 16:33N 49°13' W 122°53'6 6.4
2014-Aug-28 15:33N 49°12' W 122°44'3 3.0
2014-Aug-28 14:33N 49°13' W 122°48'5 4.5
2014-Aug-28 13:33N 49°12' W 122°54'4 4.0
2014-Aug-28 12:33N 49°13' W 122°49'0 0.0
2014-Aug-28 11:33N 49°13' W 122°49'6 6.1
2014-Aug-28 10:33N 49°11' W 122°58'4 4.3
2014-Aug-28 09:34N 49°12' W 123°04'4 4.4
2014-Aug-28 08:34N 49°11' W 122°57'7 6.9
2014-Aug-28 07:33N 49°13' W 122°47'3 3.5
2014-Aug-28 06:34N 49°12' W 122°42'1 1.3
2014-Aug-28 05:33N 49°11' W 122°41'2 1.7
2014-Aug-28 04:33N 49°11' W 122°43'7 6.9
2014-Aug-28 03:33N 49°12' W 122°54'4 4.0
2014-Aug-28 02:34N 49°09' W 122°58'2 1.7
2014-Aug-28 01:33N 49°11' W 122°58'5 5.1
2014-Aug-28 00:34N 49°12' W 123°05'7 7.0
2014-Aug-27 23:33N 49°15' W 123°15'3 2.7
2014-Aug-27 22:34N 49°13' W 123°18'6 5.6
2014-Aug-27 21:34N 49°07' W 123°19'5 4.6
2014-Aug-27 20:33N 49°07' W 123°12'7 7.1
2014-Aug-27 19:33N 49°09' W 123°01'7 6.6
2014-Aug-27 18:33N 49°13' W 122°53'6 6.2
2014-Aug-27 17:34N 49°13' W 122°44'6 5.4
2014-Aug-27 16:33N 49°12' W 122°35'1 0.7
2014-Aug-27 14:33N 49°11' W 122°34'6 5.6
2014-Aug-27 13:33N 49°12' W 122°42'5 5.2
2014-Aug-27 12:33N 49°13' W 122°50'6 6.5
2014-Aug-27 11:34N 49°09' W 122°58'5 5.4
2014-Aug-27 10:33N 49°07' W 123°05'4 4.0
2014-Aug-27 09:33N 49°09' W 123°00'5 4.6
2014-Aug-27 08:33N 49°12' W 122°54'2 1.9
2014-Aug-27 07:33N 49°13' W 122°53'3 3.4
2014-Aug-27 06:33N 49°11' W 122°55'2 1.7
2014-Aug-27 05:33N 49°09' W 122°57'1 1.2
2014-Aug-27 04:33N 49°10' W 122°56'5 5.2
2014-Aug-27 03:33N 49°13' W 122°49'5 5.1
2014-Aug-27 02:33N 49°11' W 122°42'1 0.9
2014-Aug-27 01:33N 49°11' W 122°43'3 2.7
2014-Aug-27 00:27N 49°14' W 122°46'0 0.0
2014-Aug-26 23:33N 49°14' W 122°46'1 1.1
2014-Aug-26 22:33N 49°13' W 122°45'2 1.8
2014-Aug-26 21:32N 49°15' W 122°44'3 2.7
2014-Aug-26 20:33N 49°13' W 122°47'5 4.7
2014-Aug-26 19:33N 49°12' W 122°54'4 3.7
2014-Aug-26 18:34N 49°09' W 122°57'5 5.0
2014-Aug-26 17:34N 49°13' W 122°52'7 7.3
2014-Aug-26 16:33N 49°11' W 122°41'6 5.7
2014-Aug-26 15:34N 49°13' W 122°49'1 0.8
2014-Aug-26 14:34N 49°13' W 122°48'5 4.8
2014-Aug-26 13:33N 49°11' W 122°41'5 5.4
2014-Aug-26 12:34N 49°13' W 122°49'3 3.4
2014-Aug-26 11:34N 49°12' W 122°54'6 6.1
2014-Aug-26 10:33N 49°12' W 123°03'7 6.9
2014-Aug-26 09:33N 49°14' W 123°14'2 1.7
2014-Aug-26 08:34N 49°15' W 123°15'7 6.9
2014-Aug-26 07:33N 49°08' W 123°19'2 2.2
2014-Aug-26 06:34N 49°07' W 123°17'6 6.2
2014-Aug-26 05:33N 49°07' W 123°07'6 5.9
2014-Aug-26 04:33N 49°09' W 122°59'3 2.6
2014-Aug-26 03:34N 49°11' W 122°56'5 4.6
2014-Aug-26 02:33N 49°13' W 122°50'4 3.8
2014-Aug-26 01:33N 49°13' W 122°44'2 1.7
2014-Aug-26 00:29N 49°14' W 122°46'8 8.2
2014-Aug-25 23:33N 49°10' W 122°56'2 2.2
2014-Aug-25 22:33N 49°12' W 122°54'5 4.6
2014-Aug-25 21:33N 49°09' W 123°00'4 3.9
2014-Aug-25 20:34N 49°07' W 123°05'6 6.4
2014-Aug-25 19:34N 49°10' W 122°56'1 0.7
2014-Aug-25 18:34N 49°09' W 122°57'2 2.3
2014-Aug-25 17:33N 49°11' W 122°55'6 5.9
2014-Aug-25 16:33N 49°13' W 122°46'4 3.7
2014-Aug-25 15:30N 49°11' W 122°41'0 0.2
2014-Aug-25 14:33N 49°11' W 122°41'0 0.2
2014-Aug-25 13:16N 49°11' W 122°41'0 0.1
2014-Aug-25 12:32N 49°11' W 122°41'4 3.8
2014-Aug-25 11:33N 49°13' W 122°46'5 5.0
2014-Aug-25 10:33N 49°12' W 122°54'6 5.5
2014-Aug-25 09:33N 49°12' W 123°02'2 2.5
2014-Aug-25 08:33N 49°12' W 123°06'1 1.5
2014-Aug-25 07:33N 49°12' W 123°04'6 5.9
2014-Aug-25 06:32N 49°12' W 122°55'3 3.1
2014-Aug-25 05:33N 49°09' W 122°57'5 5.2
2014-Aug-25 04:33N 49°13' W 122°52'4 4.4
2014-Aug-25 03:33N 49°10' W 122°56'3 3.3
2014-Aug-25 02:33N 49°13' W 122°54'4 4.4
2014-Aug-25 01:33N 49°13' W 122°47'1 1.3
2014-Aug-25 00:33N 49°14' W 122°46'0 0.0
2014-Aug-24 23:33N 49°14' W 122°46'0 0.0
2014-Aug-24 15:32N 49°14' W 122°46'0 0.0
2014-Aug-24 14:23N 49°14' W 122°46'0 0.0
2014-Aug-24 13:33N 49°14' W 122°46'0 0.0
2014-Aug-24 12:14N 49°14' W 122°46'1 0.3
2014-Aug-24 09:19N 49°13' W 122°47'6 7.7
2014-Aug-24 08:33N 49°12' W 122°56'7 7.1
2014-Aug-24 07:33N 49°12' W 123°07'8 8.0
2014-Aug-24 06:33N 49°16' W 123°18'0 0.4
2014-Aug-24 05:33N 49°15' W 123°18'0 0.4
2014-Aug-24 04:33N 49°16' W 123°18'3 2.5
2014-Aug-24 03:33N 49°14' W 123°14'4 4.1
2014-Aug-24 02:33N 49°12' W 123°09'3 2.9
2014-Aug-24 01:33N 49°12' W 123°04'1 0.5
2014-Aug-24 00:05N 49°12' W 123°03'0 0.3
2014-Aug-23 23:24N 49°12' W 123°03'4 4.2
2014-Aug-23 22:24N 49°12' W 122°57'3 3.8
2014-Aug-23 21:33N 49°12' W 123°02'3 2.7
2014-Aug-23 20:33N 49°11' W 122°58'2 1.7
2014-Aug-23 19:33N 49°11' W 122°55'16 1.0
2014-Aug-23 03:33N 49°16' W 123°18'7 7.5
2014-Aug-23 02:34N 49°12' W 123°08'1 0.6
2014-Aug-23 01:34N 49°12' W 123°09'5 4.6
2014-Aug-23 00:34N 49°15' W 123°15'3 2.9
2014-Aug-22 23:33N 49°13' W 123°12'4 4.1
2014-Aug-22 22:34N 49°12' W 123°05'2 2.0
2014-Aug-22 21:33N 49°12' W 123°02'1 1.0
2014-Aug-22 20:33N 49°12' W 123°04'0 0.0
2014-Aug-22 19:33N 49°12' W 123°04'0 0.0
2014-Aug-22 18:33N 49°12' W 123°04'  
Track history (hours):
 
Tides and Currents Weather Stations Pressure Air Temp Water Temp Dewpoint Dewpoint Depression Visibility Wind Speed Wind Dir Waves Ship Positions

Westview Chinook

Last reported at 2014-Sep-01 18:32 UTC. Time now 2014-Sep-01 18:53 UTC.
Position N 49°14' W 122°46'.

Length 16 m; draft 3.5 m.

Type: Towing. MMSI: 316005622.

Date/timePositionNaut miles runAvg speedWind from/ knotsBaromVisibWave heightAir tempDewpointWater temp
2014-Sep-01 18:32N 49°14' W 122°46'0 0.0
2014-Sep-01 10:23N 49°14' W 122°46'0 0.0
2014-Sep-01 09:32N 49°14' W 122°46'0 0.0
2014-Sep-01 08:33N 49°14' W 122°46'0 0.0
2014-Sep-01 07:08N 49°14' W 122°46'0 0.0
2014-Sep-01 06:31N 49°14' W 122°46'0 0.0
2014-Sep-01 05:33N 49°14' W 122°46'0 0.0
2014-Sep-01 04:26N 49°14' W 122°46'0 0.0
2014-Sep-01 03:18N 49°14' W 122°46'0 0.0
2014-Aug-31 22:33N 49°14' W 122°46'0 0.0
2014-Aug-31 21:32N 49°14' W 122°46'5 5.4
2014-Aug-31 20:33N 49°12' W 122°54'8 8.1
2014-Aug-31 19:34N 49°08' W 123°04'8 8.0
2014-Aug-31 18:33N 49°07' W 123°16'5 5.0
2014-Aug-31 17:33N 49°12' W 123°18'3 3.4
2014-Aug-31 16:33N 49°15' W 123°16'4 3.8
2014-Aug-31 15:33N 49°13' W 123°11'4 3.6
2014-Aug-31 14:33N 49°12' W 123°05'2 1.9
2014-Aug-31 13:34N 49°12' W 123°08'1 0.5
2014-Aug-31 12:34N 49°12' W 123°09'8 7.6
2014-Aug-31 11:34N 49°16' W 123°19'10 9.8
2014-Aug-31 10:33N 49°14' W 123°34'1010.1
2014-Aug-31 09:32N 49°13' W 123°50'4 4.5
2014-Aug-31 08:33N 49°09' W 123°52'4 3.6
2014-Aug-31 07:33N 49°12' W 123°52'7 6.7
2014-Aug-31 06:34N 49°12' W 123°42'7 7.4
2014-Aug-31 05:34N 49°09' W 123°32'8 7.6
2014-Aug-31 04:34N 49°06' W 123°21'7 6.7
2014-Aug-31 03:34N 49°07' W 123°11'6 6.0
2014-Aug-31 02:34N 49°09' W 123°02'7 6.6
2014-Aug-31 01:32N 49°13' W 122°54'5 5.1
2014-Aug-31 00:32N 49°14' W 122°46'0 0.0
2014-Aug-30 23:17N 49°14' W 122°46'0 0.0
2014-Aug-30 22:27N 49°14' W 122°46'0 0.0
2014-Aug-30 21:30N 49°14' W 122°46'0 0.0
2014-Aug-30 20:31N 49°14' W 122°46'0 0.0
2014-Aug-30 19:30N 49°14' W 122°46'0 0.0
2014-Aug-30 18:21N 49°14' W 122°46'0 0.0
2014-Aug-30 17:32N 49°14' W 122°46'0 0.0
2014-Aug-30 16:31N 49°14' W 122°46'0 0.0
2014-Aug-30 15:31N 49°14' W 122°46'0 0.0
2014-Aug-30 13:24N 49°14' W 122°46'0 0.0
2014-Aug-30 12:31N 49°14' W 122°46'4 3.8
2014-Aug-30 11:33N 49°11' W 122°43'1 1.3
2014-Aug-30 10:33N 49°11' W 122°41'5 4.7
2014-Aug-30 09:33N 49°13' W 122°47'6 5.6
2014-Aug-30 08:33N 49°12' W 122°56'6 5.9
2014-Aug-30 07:33N 49°12' W 123°05'0 0.2
2014-Aug-30 06:33N 49°12' W 123°04'1 0.8
2014-Aug-30 05:33N 49°12' W 123°05'4 4.2
2014-Aug-30 04:33N 49°13' W 123°12'6 5.6
2014-Aug-30 03:34N 49°16' W 123°19'2 2.5
2014-Aug-30 02:33N 49°15' W 123°15'5 5.3
2014-Aug-30 01:33N 49°12' W 123°09'6 5.6
2014-Aug-30 00:33N 49°12' W 123°00'3 3.5
2014-Aug-29 23:33N 49°12' W 123°05'0 0.1
2014-Aug-29 22:33N 49°12' W 123°05'0 0.1
2014-Aug-29 21:34N 49°12' W 123°05'7 6.7
2014-Aug-29 20:34N 49°15' W 123°15'2 1.7
2014-Aug-29 19:34N 49°15' W 123°17'5 5.0
2014-Aug-29 18:34N 49°10' W 123°18'4 3.5
2014-Aug-29 17:34N 49°07' W 123°17'4 4.3
2014-Aug-29 16:34N 49°07' W 123°11'4 4.4
2014-Aug-29 15:33N 49°07' W 123°04'4 4.4
2014-Aug-29 14:34N 49°09' W 122°58'4 3.9
2014-Aug-29 13:34N 49°12' W 122°54'0 0.3
2014-Aug-29 12:23N 49°13' W 122°54'5 6.0
2014-Aug-29 11:34N 49°12' W 123°01'1 0.8
2014-Aug-29 10:33N 49°12' W 123°02'5 5.5
2014-Aug-29 09:33N 49°12' W 122°54'7 7.3
2014-Aug-29 08:34N 49°13' W 122°43'6 6.3
2014-Aug-29 07:33N 49°13' W 122°52'4 3.6
2014-Aug-29 06:33N 49°13' W 122°47'4 4.1
2014-Aug-29 05:34N 49°11' W 122°41'2 2.3
2014-Aug-29 04:33N 49°13' W 122°44'7 7.3
2014-Aug-29 03:34N 49°12' W 122°55'1 1.2
2014-Aug-29 02:33N 49°13' W 122°54'0 0.0
2014-Aug-29 01:34N 49°13' W 122°54'1 1.5
2014-Aug-29 00:33N 49°12' W 122°55'6 5.8
2014-Aug-28 23:34N 49°12' W 123°04'3 3.1
2014-Aug-28 22:33N 49°12' W 123°09'1 0.9
2014-Aug-28 21:33N 49°12' W 123°08'0 0.2
2014-Aug-28 20:32N 49°12' W 123°08'0 0.0
2014-Aug-28 19:33N 49°12' W 123°08'2 2.5
2014-Aug-28 18:33N 49°12' W 123°04'6 5.6
2014-Aug-28 17:33N 49°10' W 122°57'4 4.0
2014-Aug-28 16:33N 49°13' W 122°53'6 6.4
2014-Aug-28 15:33N 49°12' W 122°44'3 3.0
2014-Aug-28 14:33N 49°13' W 122°48'5 4.5
2014-Aug-28 13:33N 49°12' W 122°54'4 4.0
2014-Aug-28 12:33N 49°13' W 122°49'0 0.0
2014-Aug-28 11:33N 49°13' W 122°49'6 6.1
2014-Aug-28 10:33N 49°11' W 122°58'4 4.3
2014-Aug-28 09:34N 49°12' W 123°04'4 4.4
2014-Aug-28 08:34N 49°11' W 122°57'7 6.9
2014-Aug-28 07:33N 49°13' W 122°47'3 3.5
2014-Aug-28 06:34N 49°12' W 122°42'1 1.3
2014-Aug-28 05:33N 49°11' W 122°41'2 1.7
2014-Aug-28 04:33N 49°11' W 122°43'7 6.9
2014-Aug-28 03:33N 49°12' W 122°54'4 4.0
2014-Aug-28 02:34N 49°09' W 122°58'2 1.7
2014-Aug-28 01:33N 49°11' W 122°58'5 5.1
2014-Aug-28 00:34N 49°12' W 123°05'7 7.0
2014-Aug-27 23:33N 49°15' W 123°15'3 2.7
2014-Aug-27 22:34N 49°13' W 123°18'6 5.6
2014-Aug-27 21:34N 49°07' W 123°19'5 4.6
2014-Aug-27 20:33N 49°07' W 123°12'7 7.1
2014-Aug-27 19:33N 49°09' W 123°01'7 6.6
2014-Aug-27 18:33N 49°13' W 122°53'6 6.2
2014-Aug-27 17:34N 49°13' W 122°44'6 5.4
2014-Aug-27 16:33N 49°12' W 122°35'1 0.7
2014-Aug-27 14:33N 49°11' W 122°34'6 5.6
2014-Aug-27 13:33N 49°12' W 122°42'5 5.2
2014-Aug-27 12:33N 49°13' W 122°50'6 6.5
2014-Aug-27 11:34N 49°09' W 122°58'5 5.4
2014-Aug-27 10:33N 49°07' W 123°05'4 4.0
2014-Aug-27 09:33N 49°09' W 123°00'5 4.6
2014-Aug-27 08:33N 49°12' W 122°54'2 1.9
2014-Aug-27 07:33N 49°13' W 122°53'3 3.4
2014-Aug-27 06:33N 49°11' W 122°55'2 1.7
2014-Aug-27 05:33N 49°09' W 122°57'1 1.2
2014-Aug-27 04:33N 49°10' W 122°56'5 5.2
2014-Aug-27 03:33N 49°13' W 122°49'5 5.1
2014-Aug-27 02:33N 49°11' W 122°42'1 0.9
2014-Aug-27 01:33N 49°11' W 122°43'3 2.7
2014-Aug-27 00:27N 49°14' W 122°46'0 0.0
2014-Aug-26 23:33N 49°14' W 122°46'1 1.1
2014-Aug-26 22:33N 49°13' W 122°45'2 1.8
2014-Aug-26 21:32N 49°15' W 122°44'3 2.7
2014-Aug-26 20:33N 49°13' W 122°47'5 4.7
2014-Aug-26 19:33N 49°12' W 122°54'4 3.7
2014-Aug-26 18:34N 49°09' W 122°57'5 5.0
2014-Aug-26 17:34N 49°13' W 122°52'7 7.3
2014-Aug-26 16:33N 49°11' W 122°41'6 5.7
2014-Aug-26 15:34N 49°13' W 122°49'1 0.8
2014-Aug-26 14:34N 49°13' W 122°48'5 4.8
2014-Aug-26 13:33N 49°11' W 122°41'5 5.4
2014-Aug-26 12:34N 49°13' W 122°49'3 3.4
2014-Aug-26 11:34N 49°12' W 122°54'6 6.1
2014-Aug-26 10:33N 49°12' W 123°03'7 6.9
2014-Aug-26 09:33N 49°14' W 123°14'2 1.7
2014-Aug-26 08:34N 49°15' W 123°15'7 6.9
2014-Aug-26 07:33N 49°08' W 123°19'2 2.2
2014-Aug-26 06:34N 49°07' W 123°17'6 6.2
2014-Aug-26 05:33N 49°07' W 123°07'6 5.9
2014-Aug-26 04:33N 49°09' W 122°59'3 2.6
2014-Aug-26 03:34N 49°11' W 122°56'5 4.6
2014-Aug-26 02:33N 49°13' W 122°50'4 3.8
2014-Aug-26 01:33N 49°13' W 122°44'2 1.7
2014-Aug-26 00:29N 49°14' W 122°46'8 8.2
2014-Aug-25 23:33N 49°10' W 122°56'2 2.2
2014-Aug-25 22:33N 49°12' W 122°54'5 4.6
2014-Aug-25 21:33N 49°09' W 123°00'4 3.9
2014-Aug-25 20:34N 49°07' W 123°05'6 6.4
2014-Aug-25 19:34N 49°10' W 122°56'1 0.7
2014-Aug-25 18:34N 49°09' W 122°57'2 2.3
2014-Aug-25 17:33N 49°11' W 122°55'6 5.9
2014-Aug-25 16:33N 49°13' W 122°46'4 3.7
2014-Aug-25 15:30N 49°11' W 122°41'0 0.2
2014-Aug-25 14:33N 49°11' W 122°41'0 0.2
2014-Aug-25 13:16N 49°11' W 122°41'0 0.1
2014-Aug-25 12:32N 49°11' W 122°41'4 3.8
2014-Aug-25 11:33N 49°13' W 122°46'5 5.0
2014-Aug-25 10:33N 49°12' W 122°54'6 5.5
2014-Aug-25 09:33N 49°12' W 123°02'2 2.5
2014-Aug-25 08:33N 49°12' W 123°06'1 1.5
2014-Aug-25 07:33N 49°12' W 123°04'6 5.9
2014-Aug-25 06:32N 49°12' W 122°55'3 3.1
2014-Aug-25 05:33N 49°09' W 122°57'5 5.2
2014-Aug-25 04:33N 49°13' W 122°52'4 4.4
2014-Aug-25 03:33N 49°10' W 122°56'3 3.3
2014-Aug-25 02:33N 49°13' W 122°54'4 4.4
2014-Aug-25 01:33N 49°13' W 122°47'1 1.3
2014-Aug-25 00:33N 49°14' W 122°46'0 0.0
2014-Aug-24 23:33N 49°14' W 122°46'0 0.0
2014-Aug-24 15:32N 49°14' W 122°46'0 0.0
2014-Aug-24 14:23N 49°14' W 122°46'0 0.0
2014-Aug-24 13:33N 49°14' W 122°46'0 0.0
2014-Aug-24 12:14N 49°14' W 122°46'1 0.3
2014-Aug-24 09:19N 49°13' W 122°47'6 7.7
2014-Aug-24 08:33N 49°12' W 122°56'7 7.1
2014-Aug-24 07:33N 49°12' W 123°07'8 8.0
2014-Aug-24 06:33N 49°16' W 123°18'0 0.4
2014-Aug-24 05:33N 49°15' W 123°18'0 0.4
2014-Aug-24 04:33N 49°16' W 123°18'3 2.5
2014-Aug-24 03:33N 49°14' W 123°14'4 4.1
2014-Aug-24 02:33N 49°12' W 123°09'3 2.9
2014-Aug-24 01:33N 49°12' W 123°04'1 0.5
2014-Aug-24 00:05N 49°12' W 123°03'0 0.3
2014-Aug-23 23:24N 49°12' W 123°03'4 4.2
2014-Aug-23 22:24N 49°12' W 122°57'3 3.8
2014-Aug-23 21:33N 49°12' W 123°02'3 2.7
2014-Aug-23 20:33N 49°11' W 122°58'2 1.7
2014-Aug-23 19:33N 49°11' W 122°55'16 1.0
2014-Aug-23 03:33N 49°16' W 123°18'7 7.5
2014-Aug-23 02:34N 49°12' W 123°08'1 0.6
2014-Aug-23 01:34N 49°12' W 123°09'5 4.6
2014-Aug-23 00:34N 49°15' W 123°15'3 2.9
2014-Aug-22 23:33N 49°13' W 123°12'4 4.1
2014-Aug-22 22:34N 49°12' W 123°05'2 2.0
2014-Aug-22 21:33N 49°12' W 123°02'1 1.0
2014-Aug-22 20:33N 49°12' W 123°04'0 0.0
2014-Aug-22 19:33N 49°12' W 123°04'0 0.0
2014-Aug-22 18:33N 49°12' W 123°04'  

Dump ship's entire track history